Time;durP1;ratioP1;P1;durP2;ratioP2;P2;SDS_P1;SDS_P2;PMS_P1;PMS_P2;Temp;Humidity;BMP_temperature;BMP_pressure;BME280_temperature;BME280_humidity;BME280_pressure;Samples;Min_cycle;Max_cycle;Signal;HPM_P1;HPM_P2
2022/03/08 00:09:32;;;;;;;14.02;9.70;;;;;;;20.28;44.11;100809.16;20633656;27;97148;-77
2022/03/08 00:19:33;;;;;;;10.98;8.27;;;;;;;20.24;43.98;100791.91;20624760;27;98559;-77
2022/03/08 00:29:34;;;;;;;11.75;8.70;;;;;;;20.22;44.10;100788.53;20573966;28;97977;-77
2022/03/08 00:39:34;;;;;;;11.55;7.97;;;;;;;20.20;44.22;100780.75;20636093;28;98756;-77
2022/03/08 00:49:36;;;;;;;10.60;8.13;;;;;;;20.17;44.20;100772.22;20647261;28;99018;-76
2022/03/08 00:59:37;;;;;;;11.23;8.43;;;;;;;20.14;43.96;100782.00;20644440;27;99143;-76
2022/03/08 01:09:37;;;;;;;11.02;8.00;;;;;;;20.10;44.09;100777.91;20645078;27;101892;-76
2022/03/08 01:19:39;;;;;;;9.88;7.32;;;;;;;20.07;44.03;100761.47;20638577;28;97689;-76
2022/03/08 01:29:39;;;;;;;9.57;7.32;;;;;;;20.05;43.90;100760.72;20651297;27;100374;-77
2022/03/08 01:39:41;;;;;;;9.25;7.03;;;;;;;20.00;43.54;100761.88;20641579;28;99189;-77
2022/03/08 01:49:44;;;;;;;9.07;7.20;;;;;;;20.00;43.58;100768.91;20641042;27;98456;-79
2022/03/08 01:59:45;;;;;;;8.93;6.55;;;;;;;19.92;43.81;100765.94;20643307;27;98505;-76
2022/03/08 02:09:45;;;;;;;10.20;6.88;;;;;;;19.90;43.85;100759.97;20642752;28;100571;-76
2022/03/08 02:19:46;;;;;;;8.30;6.35;;;;;;;19.91;43.94;100764.25;20643853;28;96980;-76
2022/03/08 02:29:47;;;;;;;20.27;6.60;;;;;;;19.86;43.71;100759.34;20634880;28;98160;-76
2022/03/08 02:39:47;;;;;;;8.55;6.00;;;;;;;19.85;43.77;100760.28;20643978;28;101679;-76
2022/03/08 02:49:48;;;;;;;10.05;5.95;;;;;;;19.84;43.93;100771.72;20635688;28;97438;-75
2022/03/08 02:59:48;;;;;;;8.50;6.47;;;;;;;19.82;43.80;100781.44;20614780;27;97098;-76
2022/03/08 03:09:50;;;;;;;7.28;5.53;;;;;;;19.79;43.92;100769.34;20633169;28;98011;-78
2022/03/08 03:19:50;;;;;;;6.28;5.18;;;;;;;19.79;44.03;100769.34;20637985;27;97250;-76
2022/03/08 03:29:51;;;;;;;7.23;5.80;;;;;;;19.80;43.67;100764.97;20640213;27;98271;-77
2022/03/08 03:39:53;;;;;;;7.32;5.50;;;;;;;19.77;44.07;100768.59;20629707;28;96941;-75
2022/03/08 03:49:53;;;;;;;8.13;5.50;;;;;;;19.79;43.70;100784.28;20612436;28;97995;-75
2022/03/08 03:59:53;;;;;;;6.70;5.13;;;;;;;19.77;44.00;100786.16;20609851;28;97354;-76
2022/03/08 04:09:54;;;;;;;7.10;5.35;;;;;;;19.77;43.57;100786.16;20641182;28;97257;-76
2022/03/08 04:19:55;;;;;;;6.32;4.93;;;;;;;19.76;43.75;100782.72;20638920;27;97406;-76
2022/03/08 04:29:55;;;;;;;7.18;5.20;;;;;;;19.76;43.61;100785.34;20644266;27;98314;-76
2022/03/08 04:39:56;;;;;;;5.20;4.40;;;;;;;19.76;43.80;100777.47;20643921;27;99785;-76
2022/03/08 04:49:56;;;;;;;5.45;4.50;;;;;;;19.76;43.82;100785.34;20614501;27;98378;-75
2022/03/08 04:59:57;;;;;;;6.50;4.55;;;;;;;19.74;43.78;100770.59;20591483;27;99414;-76
2022/03/08 05:09:58;;;;;;;7.93;5.05;;;;;;;19.83;43.32;100770.00;20640945;27;98542;-74
2022/03/08 05:19:59;;;;;;;5.75;4.32;;;;;;;19.98;43.99;100766.41;20630014;27;99229;-76
2022/03/08 05:29:59;;;;;;;7.30;4.70;;;;;;;20.10;45.04;100767.38;20630436;28;100272;-78
2022/03/08 05:40:00;;;;;;;6.13;4.05;;;;;;;20.19;45.34;100780.84;20626107;28;100399;-77
2022/03/08 05:50:00;;;;;;;6.63;4.38;;;;;;;20.26;44.94;100775.06;20639507;27;97621;-77
2022/03/08 06:00:03;;;;;;;7.15;4.55;;;;;;;20.34;44.47;100781.59;20655873;28;98280;-79
2022/03/08 06:10:07;;;;;;;10.47;4.83;;;;;;;20.29;44.15;100793.25;20655889;28;101350;-79
2022/03/08 06:20:09;;;;;;;11.82;6.40;;;;;;;20.30;43.08;100799.38;20634987;27;98281;-77
2022/03/08 06:30:10;;;;;;;13.38;6.22;;;;;;;20.14;40.91;100810.06;20645248;27;98937;-79
2022/03/08 06:40:11;;;;;;;18.27;6.45;;;;;;;20.34;41.55;100821.06;20625668;28;100649;-78
2022/03/08 06:50:12;;;;;;;23.60;11.20;;;;;;;20.08;36.45;100828.88;20641840;27;97657;-78
2022/03/08 07:11:09;;;;;;;15.50;7.15;;;;;;;20.45;41.75;100836.97;20634627;28;97742;-77
2022/03/08 07:21:10;;;;;;;14.38;6.93;;;;;;;20.49;41.94;100841.06;20639007;27;98285;-77
2022/03/08 07:31:12;;;;;;;16.73;7.07;;;;;;;20.56;42.59;100833.59;20640886;27;98310;-78
2022/03/08 07:41:13;;;;;;;16.77;6.55;;;;;;;20.61;42.44;100836.75;20657928;27;99149;-78
2022/03/08 07:51:13;;;;;;;12.07;6.25;;;;;;;20.67;42.47;100843.41;20638165;28;97527;-78
2022/03/08 08:01:14;;;;;;;14.57;7.50;;;;;;;20.68;42.55;100840.66;20642314;27;98259;-77
2022/03/08 08:11:14;;;;;;;13.23;8.30;;;;;;;20.71;42.61;100829.09;20640541;28;98612;-78
2022/03/08 08:21:15;;;;;;;14.02;7.88;;;;;;;20.75;42.46;100825.31;20631831;27;98235;-78
2022/03/08 08:31:16;;;;;;;42.03;23.50;;;;;;;20.28;35.02;100831.03;20642769;28;98003;-78
2022/03/08 08:41:16;;;;;;;28.77;15.27;;;;;;;20.70;38.23;100822.13;20664006;28;98060;-79
2022/03/08 08:51:17;;;;;;;19.57;12.17;;;;;;;20.79;40.47;100825.00;20646634;27;97617;-79
2022/03/08 09:01:17;;;;;;;18.77;10.70;;;;;;;20.85;41.17;100812.34;20661709;27;98078;-77
2022/03/08 09:11:19;;;;;;;18.33;10.80;;;;;;;20.87;41.60;100818.38;20650678;27;98380;-77
2022/03/08 09:21:19;;;;;;;14.27;9.65;;;;;;;20.91;41.50;100814.56;20640557;27;97675;-78
2022/03/08 09:31:20;;;;;;;13.00;9.40;;;;;;;20.94;41.57;100817.00;20655282;28;97062;-78
2022/03/08 09:41:22;;;;;;;14.05;9.32;;;;;;;20.97;41.83;100810.66;20664272;28;100240;-79
2022/03/08 09:51:23;;;;;;;11.77;8.45;;;;;;;21.00;42.01;100800.78;20655156;27;97113;-78
2022/03/08 10:01:23;;;;;;;13.63;9.35;;;;;;;21.04;42.14;100804.84;20651034;27;97150;-78
2022/03/08 10:11:24;;;;;;;13.55;9.18;;;;;;;21.06;42.25;100792.44;20657458;28;98186;-77
2022/03/08 10:21:47;;;;;;;13.63;9.38;;;;;;;21.12;41.94;100799.06;20653650;27;100104;-77
2022/03/08 10:31:48;;;;;;;13.77;8.90;;;;;;;21.20;42.29;100794.13;20612088;27;97858;-77
2022/03/08 10:41:55;;;;;;;13.77;9.07;;;;;;;21.25;42.58;100789.34;20587921;27;100036;-78
2022/03/08 10:52:00;;;;;;;11.77;8.75;;;;;;;21.33;42.54;100786.16;20657301;28;99249;-78
2022/03/08 11:02:22;;;;;;;11.85;8.60;;;;;;;21.38;42.40;100780.56;20658056;28;97673;-78
2022/03/08 11:12:23;;;;;;;10.33;8.23;;;;;;;21.45;41.82;100784.44;20652212;28;99872;-78
2022/03/08 11:22:24;;;;;;;11.07;7.72;;;;;;;21.46;41.61;100766.81;20647655;28;97622;-78
2022/03/08 11:32:31;;;;;;;12.00;8.25;;;;;;;21.38;41.65;100757.69;20647297;28;97442;-78
2022/03/08 11:42:34;;;;;;;11.18;7.97;;;;;;;21.33;41.37;100748.44;20646483;27;97439;-78
2022/03/08 11:52:36;;;;;;;;;;;;;;;21.42;41.79;100734.59;20638493;28;98711;-78
2022/03/08 12:02:43;;;;;;;11.63;8.57;;;;;;;21.37;41.64;100739.38;20604719;28;99731;-78
2022/03/08 12:12:44;;;;;;;12.50;8.45;;;;;;;21.31;41.40;100724.84;20637937;28;100847;-78
2022/03/08 12:22:44;;;;;;;11.63;8.15;;;;;;;21.31;41.74;100729.28;20635611;28;99741;-78
2022/03/08 12:32:47;;;;;;;12.18;8.02;;;;;;;21.34;41.95;100722.00;20639799;27;97424;-78
2022/03/08 12:42:55;;;;;;;;;;;;;;;21.39;42.28;100713.75;20656937;27;97960;-78
2022/03/08 12:53:00;;;;;;;9.43;7.50;;;;;;;21.49;42.20;100692.84;20660691;27;101126;-78
2022/03/08 13:03:02;;;;;;;9.70;7.88;;;;;;;21.47;41.95;100681.56;20649104;27;97379;-78
2022/03/08 13:13:04;;;;;;;9.63;6.90;;;;;;;21.42;41.68;100684.53;20667044;27;96928;-77
2022/03/08 13:23:07;;;;;;;9.70;7.20;;;;;;;21.55;41.58;100671.31;20672935;28;99078;-77
2022/03/08 13:33:24;;;;;;;9.40;6.57;;;;;;;21.66;41.54;100675.81;20666144;28;97065;-79
2022/03/08 13:43:26;;;;;;;8.07;6.60;;;;;;;21.78;41.94;100671.44;20661842;27;98913;-78
2022/03/08 13:53:30;;;;;;;9.65;6.43;;;;;;;21.87;42.14;100663.66;20686946;28;99343;-79
2022/03/08 14:03:37;;;;;;;11.63;6.10;;;;;;;21.97;42.31;100660.31;20705321;27;97533;-81
2022/03/08 14:13:55;;;;;;;11.30;6.10;;;;;;;22.01;42.08;100651.22;20710868;27;97317;-80
2022/03/08 14:24:10;;;;;;;8.02;5.57;;;;;;;21.93;41.96;100650.97;20667380;27;100586;-78
2022/03/08 14:34:27;;;;;;;7.95;5.38;;;;;;;21.96;41.95;100653.34;20669823;27;99374;-77
2022/03/08 14:44:31;;;;;;;9.02;5.07;;;;;;;22.01;42.07;100644.13;20669803;28;97942;-78
2022/03/08 14:54:32;;;;;;;9.85;5.10;;;;;;;22.06;42.08;100638.50;20692712;27;102552;-81
2022/03/08 15:04:32;;;;;;;12.23;5.10;;;;;;;22.07;42.15;100634.91;20701622;28;100305;-82
2022/03/08 15:14:33;;;;;;;8.15;4.35;;;;;;;22.04;42.17;100622.78;20691954;28;96940;-78
2022/03/08 15:24:34;;;;;;;10.32;4.28;;;;;;;21.96;42.24;100626.97;20680783;28;97236;-78
2022/03/08 15:34:35;;;;;;;7.78;4.15;;;;;;;21.86;42.08;100629.47;20667856;27;97717;-78
2022/03/08 15:44:35;;;;;;;5.45;3.83;;;;;;;21.78;41.88;100629.25;20661670;27;97927;-78
2022/03/08 15:54:36;;;;;;;12.38;4.43;;;;;;;21.69;41.34;100629.00;20645840;27;99412;-78
2022/03/08 16:04:37;;;;;;;9.90;4.20;;;;;;;21.64;41.43;100640.81;20660062;28;97698;-78
2022/03/08 16:14:37;;;;;;;8.63;4.30;;;;;;;21.57;41.34;100643.91;20666703;27;97664;-80
2022/03/08 16:24:38;;;;;;;11.68;4.75;;;;;;;21.55;40.69;100652.88;20671037;28;97475;-80
2022/03/08 16:34:38;;;;;;;8.30;4.57;;;;;;;21.50;41.78;100670.81;20649593;28;98286;-79
2022/03/08 16:44:39;;;;;;;10.50;4.13;;;;;;;21.52;41.73;100674.16;20661137;28;98625;-79
2022/03/08 16:54:39;;;;;;;10.57;4.13;;;;;;;21.49;42.34;100684.94;20673709;27;99900;-79
2022/03/08 17:04:39;;;;;;;11.15;4.15;;;;;;;21.39;42.05;100692.69;20662697;28;98795;-79
2022/03/08 17:14:40;;;;;;;8.93;4.07;;;;;;;21.36;42.26;100699.03;20652987;28;98419;-78
2022/03/08 17:24:41;;;;;;;10.32;3.83;;;;;;;21.27;42.12;100711.03;20649627;28;98395;-78
2022/03/08 17:34:42;;;;;;;12.05;3.72;;;;;;;21.25;41.74;100709.47;20646089;28;98596;-80
2022/03/08 17:44:44;;;;;;;8.93;3.65;;;;;;;21.26;41.92;100706.75;20655073;27;100004;-79
2022/03/08 17:54:45;;;;;;;6.95;3.92;;;;;;;21.28;42.21;100717.19;20659647;27;98004;-81
2022/03/08 18:04:46;;;;;;;8.38;4.15;;;;;;;21.33;42.22;100725.56;20700311;28;97582;-83
2022/03/08 18:14:48;;;;;;;7.35;3.67;;;;;;;21.37;42.33;100734.09;20650038;27;100807;-80
2022/03/08 18:24:52;;;;;;;7.22;4.10;;;;;;;21.42;42.80;100751.25;20673726;28;98199;-81
2022/03/08 18:34:53;;;;;;;9.25;4.30;;;;;;;21.46;43.01;100757.16;20687487;28;97195;-79
2022/03/08 18:44:53;;;;;;;7.13;3.80;;;;;;;21.49;43.12;100754.28;20674693;27;100236;-82
2022/03/08 18:54:54;;;;;;;10.15;4.20;;;;;;;21.52;43.24;100764.59;20676339;28;100331;-80
2022/03/08 19:04:55;;;;;;;10.68;4.10;;;;;;;21.58;43.03;100766.81;20677778;27;98137;-80
2022/03/08 19:14:55;;;;;;;40.50;21.27;;;;;;;21.70;43.52;100772.13;20664337;28;97767;-81
2022/03/08 19:24:58;;;;;;;98.70;61.05;;;;;;;21.77;44.05;100768.09;20682032;28;100580;-82
2022/03/08 19:34:59;;;;;;;100.70;61.55;;;;;;;21.83;45.13;100769.44;20685840;28;98200;-80
2022/03/08 19:45:00;;;;;;;83.53;52.35;;;;;;;21.72;44.92;100791.31;20663988;27;100322;-78
2022/03/08 19:55:00;;;;;;;76.40;45.35;;;;;;;21.64;44.80;100789.25;20644050;28;97438;-78
2022/03/08 20:05:01;;;;;;;76.38;42.70;;;;;;;21.54;44.33;100796.94;20638412;27;97368;-79
2022/03/08 20:15:08;;;;;;;71.57;40.28;;;;;;;21.44;44.55;100794.13;20669754;28;97446;-80
2022/03/08 20:25:10;;;;;;;63.50;37.92;;;;;;;21.37;43.76;100773.59;20674204;28;97517;-79
2022/03/08 20:35:11;;;;;;;58.30;35.88;;;;;;;21.29;43.71;100784.72;20656735;28;97923;-79
2022/03/08 20:45:12;;;;;;;54.88;33.58;;;;;;;21.24;44.60;100792.94;20667248;28;97035;-79
2022/03/08 20:55:13;;;;;;;48.33;30.58;;;;;;;21.19;44.78;100795.06;20669546;28;98001;-78
2022/03/08 21:05:14;;;;;;;43.38;28.58;;;;;;;21.15;45.00;100784.84;20663451;28;98317;-78
2022/03/08 21:15:15;;;;;;;41.28;25.77;;;;;;;21.10;44.66;100793.06;20661809;28;97023;-78
2022/03/08 21:25:16;;;;;;;41.10;25.63;;;;;;;21.04;45.06;100806.66;20663296;28;98062;-78
2022/03/08 21:35:16;;;;;;;34.95;23.40;;;;;;;21.00;45.29;100802.56;20669553;27;97346;-79
2022/03/08 21:45:18;;;;;;;35.88;22.52;;;;;;;20.98;44.65;100813.19;20673431;27;100835;-81
2022/03/08 21:55:19;;;;;;;30.07;20.63;;;;;;;20.93;45.47;100808.28;20671848;28;97463;-79
2022/03/08 22:05:20;;;;;;;28.40;19.15;;;;;;;20.92;45.17;100827.63;20666328;27;98688;-78
2022/03/08 22:15:21;;;;;;;33.10;19.65;;;;;;;20.98;46.66;100828.16;20662670;28;98449;-77
2022/03/08 22:25:22;;;;;;;25.73;17.58;;;;;;;20.92;46.82;100821.50;20648953;27;96965;-77
2022/03/08 22:35:22;;;;;;;27.17;16.10;;;;;;;20.92;46.39;100817.13;20664211;27;97159;-77
2022/03/08 22:45:23;;;;;;;26.63;16.05;;;;;;;20.89;46.08;100821.75;20653622;28;100107;-78
2022/03/08 22:55:23;;;;;;;26.77;15.35;;;;;;;20.86;46.09;100832.47;20654668;28;97238;-78
2022/03/08 23:05:24;;;;;;;21.42;13.55;;;;;;;20.82;45.86;100831.00;20651278;28;97428;-78
2022/03/08 23:15:24;;;;;;;21.15;13.68;;;;;;;20.79;45.80;100835.53;20649490;28;103049;-77
2022/03/08 23:25:25;;;;;;;20.17;13.30;;;;;;;20.71;45.73;100845.69;20614012;28;97639;-77
2022/03/08 23:35:26;;;;;;;17.58;12.25;;;;;;;20.67;45.88;100856.56;20623359;27;97388;-78
2022/03/08 23:45:28;;;;;;;17.75;11.68;;;;;;;20.63;45.60;100863.81;20646060;27;98232;-77
2022/03/08 23:55:28;;;;;;;15.98;10.80;;;;;;;20.58;45.67;100879.91;20649817;28;98055;-76
